sensor_id;sensor_type;location;lat;lon;timestamp;P1;durP1;ratioP1;P2;durP2;ratioP2
44434;SDS011;30138;20.964;105.830;2023-02-11T00:04:06;58.15;;;36.00;;
44434;SDS011;30138;20.964;105.830;2023-02-11T00:09:15;62.60;;;37.55;;
44434;SDS011;30138;20.964;105.830;2023-02-11T00:14:21;62.00;;;36.78;;
44434;SDS011;30138;20.964;105.830;2023-02-11T00:19:27;62.92;;;36.88;;
44434;SDS011;30138;20.964;105.830;2023-02-11T00:24:36;61.38;;;36.08;;
44434;SDS011;30138;20.964;105.830;2023-02-11T00:29:43;63.40;;;37.60;;
44434;SDS011;30138;20.964;105.830;2023-02-11T00:34:51;64.85;;;38.10;;
44434;SDS011;30138;20.964;105.830;2023-02-11T00:39:59;63.53;;;36.60;;
44434;SDS011;30138;20.964;105.830;2023-02-11T00:45:07;63.88;;;37.33;;
44434;SDS011;30138;20.964;105.830;2023-02-11T00:50:15;66.22;;;37.33;;
44434;SDS011;30138;20.964;105.830;2023-02-11T00:55:24;62.35;;;36.88;;
44434;SDS011;30138;20.964;105.830;2023-02-11T01:00:31;73.93;;;37.08;;
44434;SDS011;30138;20.964;105.830;2023-02-11T01:05:38;73.70;;;38.00;;
44434;SDS011;30138;20.964;105.830;2023-02-11T01:10:48;72.43;;;37.22;;
44434;SDS011;30138;20.964;105.830;2023-02-11T01:16:01;74.93;;;39.10;;
44434;SDS011;30138;20.964;105.830;2023-02-11T01:21:10;67.88;;;37.97;;
44434;SDS011;30138;20.964;105.830;2023-02-11T01:26:19;68.60;;;36.88;;
44434;SDS011;30138;20.964;105.830;2023-02-11T01:31:26;70.80;;;37.42;;
44434;SDS011;30138;20.964;105.830;2023-02-11T01:36:35;72.60;;;38.08;;
44434;SDS011;30138;20.964;105.830;2023-02-11T01:41:42;71.10;;;38.38;;
44434;SDS011;30138;20.964;105.830;2023-02-11T01:46:49;79.30;;;39.00;;
44434;SDS011;30138;20.964;105.830;2023-02-11T01:51:56;82.90;;;40.92;;
44434;SDS011;30138;20.964;105.830;2023-02-11T01:57:09;70.90;;;38.72;;
44434;SDS011;30138;20.964;105.830;2023-02-11T02:02:26;82.25;;;40.95;;
44434;SDS011;30138;20.964;105.830;2023-02-11T02:07:41;79.15;;;42.30;;
44434;SDS011;30138;20.964;105.830;2023-02-11T02:13:00;85.35;;;44.75;;
44434;SDS011;30138;20.964;105.830;2023-02-11T02:18:13;87.40;;;45.60;;
44434;SDS011;30138;20.964;105.830;2023-02-11T02:23:49;90.57;;;46.65;;
44434;SDS011;30138;20.964;105.830;2023-02-11T02:35:12;97.28;;;48.33;;
44434;SDS011;30138;20.964;105.830;2023-02-11T02:40:29;91.60;;;47.70;;
44434;SDS011;30138;20.964;105.830;2023-02-11T02:45:40;100.45;;;50.50;;
44434;SDS011;30138;20.964;105.830;2023-02-11T02:50:49;98.22;;;50.78;;
44434;SDS011;30138;20.964;105.830;2023-02-11T02:56:05;106.43;;;51.67;;
44434;SDS011;30138;20.964;105.830;2023-02-11T03:06:33;97.07;;;50.75;;
44434;SDS011;30138;20.964;105.830;2023-02-11T03:11:51;97.65;;;51.75;;
44434;SDS011;30138;20.964;105.830;2023-02-11T03:16:58;98.70;;;52.53;;
44434;SDS011;30138;20.964;105.830;2023-02-11T03:22:11;95.38;;;51.58;;
44434;SDS011;30138;20.964;105.830;2023-02-11T03:27:24;93.80;;;54.15;;
44434;SDS011;30138;20.964;105.830;2023-02-11T03:32:37;97.50;;;53.38;;
44434;SDS011;30138;20.964;105.830;2023-02-11T03:37:49;228.20;;;98.20;;
44434;SDS011;30138;20.964;105.830;2023-02-11T03:43:00;370.63;;;146.73;;
44434;SDS011;30138;20.964;105.830;2023-02-11T03:48:13;279.83;;;122.97;;
44434;SDS011;30138;20.964;105.830;2023-02-11T03:53:26;234.98;;;104.93;;
44434;SDS011;30138;20.964;105.830;2023-02-11T03:58:32;200.05;;;96.85;;
44434;SDS011;30138;20.964;105.830;2023-02-11T04:03:38;178.55;;;90.82;;
44434;SDS011;30138;20.964;105.830;2023-02-11T04:08:46;182.98;;;91.30;;
44434;SDS011;30138;20.964;105.830;2023-02-11T04:13:54;181.25;;;94.43;;
44434;SDS011;30138;20.964;105.830;2023-02-11T04:19:10;181.27;;;94.88;;
44434;SDS011;30138;20.964;105.830;2023-02-11T04:24:27;174.98;;;93.43;;
44434;SDS011;30138;20.964;105.830;2023-02-11T04:29:33;181.98;;;94.22;;
44434;SDS011;30138;20.964;105.830;2023-02-11T04:34:39;174.98;;;92.07;;
44434;SDS011;30138;20.964;105.830;2023-02-11T04:39:48;172.60;;;93.78;;
44434;SDS011;30138;20.964;105.830;2023-02-11T04:44:55;167.60;;;92.68;;
44434;SDS011;30138;20.964;105.830;2023-02-11T04:50:02;163.90;;;92.20;;
44434;SDS011;30138;20.964;105.830;2023-02-11T04:55:11;175.27;;;92.55;;
44434;SDS011;30138;20.964;105.830;2023-02-11T05:00:19;157.60;;;92.70;;
44434;SDS011;30138;20.964;105.830;2023-02-11T05:05:25;155.05;;;91.55;;
44434;SDS011;30138;20.964;105.830;2023-02-11T05:10:33;160.48;;;89.78;;
44434;SDS011;30138;20.964;105.830;2023-02-11T05:15:40;153.98;;;87.90;;
44434;SDS011;30138;20.964;105.830;2023-02-11T05:20:46;156.80;;;88.43;;
44434;SDS011;30138;20.964;105.830;2023-02-11T05:25:55;148.98;;;88.20;;
44434;SDS011;30138;20.964;105.830;2023-02-11T05:31:02;145.68;;;86.38;;
44434;SDS011;30138;20.964;105.830;2023-02-11T05:36:09;144.07;;;86.10;;
44434;SDS011;30138;20.964;105.830;2023-02-11T05:41:19;153.75;;;85.35;;
44434;SDS011;30138;20.964;105.830;2023-02-11T05:46:25;145.85;;;85.03;;
44434;SDS011;30138;20.964;105.830;2023-02-11T05:51:32;147.23;;;85.35;;
44434;SDS011;30138;20.964;105.830;2023-02-11T05:56:41;149.18;;;86.38;;
44434;SDS011;30138;20.964;105.830;2023-02-11T06:01:48;142.82;;;83.75;;
44434;SDS011;30138;20.964;105.830;2023-02-11T06:06:55;144.80;;;83.63;;
44434;SDS011;30138;20.964;105.830;2023-02-11T06:12:04;143.07;;;81.85;;
44434;SDS011;30138;20.964;105.830;2023-02-11T06:17:11;138.50;;;81.13;;
44434;SDS011;30138;20.964;105.830;2023-02-11T06:22:17;145.90;;;81.97;;
44434;SDS011;30138;20.964;105.830;2023-02-11T06:27:25;134.63;;;80.53;;
44434;SDS011;30138;20.964;105.830;2023-02-11T06:32:31;132.00;;;78.75;;
44434;SDS011;30138;20.964;105.830;2023-02-11T06:37:37;131.52;;;77.75;;
44434;SDS011;30138;20.964;105.830;2023-02-11T06:42:46;133.55;;;77.18;;
44434;SDS011;30138;20.964;105.830;2023-02-11T06:47:53;128.50;;;76.45;;
44434;SDS011;30138;20.964;105.830;2023-02-11T06:53:00;131.25;;;76.35;;
44434;SDS011;30138;20.964;105.830;2023-02-11T06:58:08;130.32;;;77.43;;
44434;SDS011;30138;20.964;105.830;2023-02-11T07:03:15;124.25;;;74.53;;
44434;SDS011;30138;20.964;105.830;2023-02-11T07:08:21;126.05;;;75.22;;
44434;SDS011;30138;20.964;105.830;2023-02-11T07:13:30;120.70;;;73.82;;
44434;SDS011;30138;20.964;105.830;2023-02-11T07:18:37;121.10;;;74.10;;
44434;SDS011;30138;20.964;105.830;2023-02-11T07:23:44;122.28;;;72.07;;
44434;SDS011;30138;20.964;105.830;2023-02-11T07:35:09;119.93;;;73.07;;
44434;SDS011;30138;20.964;105.830;2023-02-11T07:40:21;123.28;;;73.25;;
44434;SDS011;30138;20.964;105.830;2023-02-11T07:45:28;122.68;;;72.13;;
44434;SDS011;30138;20.964;105.830;2023-02-11T07:50:40;119.25;;;70.50;;
44434;SDS011;30138;20.964;105.830;2023-02-11T07:55:49;111.25;;;66.15;;
44434;SDS011;30138;20.964;105.830;2023-02-11T08:00:59;123.28;;;67.63;;
44434;SDS011;30138;20.964;105.830;2023-02-11T08:06:10;123.78;;;66.00;;
44434;SDS011;30138;20.964;105.830;2023-02-11T08:11:22;127.18;;;69.15;;
44434;SDS011;30138;20.964;105.830;2023-02-11T08:16:33;135.03;;;70.63;;
44434;SDS011;30138;20.964;105.830;2023-02-11T08:21:45;127.45;;;69.68;;
44434;SDS011;30138;20.964;105.830;2023-02-11T08:26:54;130.37;;;72.50;;
44434;SDS011;30138;20.964;105.830;2023-02-11T08:32:02;133.82;;;71.30;;
44434;SDS011;30138;20.964;105.830;2023-02-11T08:37:12;132.30;;;72.15;;
44434;SDS011;30138;20.964;105.830;2023-02-11T08:42:20;123.20;;;70.75;;
44434;SDS011;30138;20.964;105.830;2023-02-11T08:47:29;122.25;;;69.85;;
44434;SDS011;30138;20.964;105.830;2023-02-11T08:52:38;121.70;;;68.05;;
44434;SDS011;30138;20.964;105.830;2023-02-11T08:57:45;115.15;;;67.35;;
44434;SDS011;30138;20.964;105.830;2023-02-11T09:02:53;111.32;;;67.18;;
44434;SDS011;30138;20.964;105.830;2023-02-11T09:08:04;111.20;;;65.65;;
44434;SDS011;30138;20.964;105.830;2023-02-11T09:13:12;104.68;;;63.83;;
44434;SDS011;30138;20.964;105.830;2023-02-11T09:18:19;108.97;;;60.75;;
44434;SDS011;30138;20.964;105.830;2023-02-11T09:23:30;104.80;;;62.05;;
44434;SDS011;30138;20.964;105.830;2023-02-11T09:28:38;99.00;;;59.03;;
44434;SDS011;30138;20.964;105.830;2023-02-11T09:33:46;96.88;;;56.60;;
44434;SDS011;30138;20.964;105.830;2023-02-11T09:38:59;97.07;;;57.58;;
44434;SDS011;30138;20.964;105.830;2023-02-11T09:44:09;102.20;;;59.38;;
44434;SDS011;30138;20.964;105.830;2023-02-11T09:49:30;104.82;;;60.15;;
44434;SDS011;30138;20.964;105.830;2023-02-11T09:54:48;107.53;;;60.42;;
44434;SDS011;30138;20.964;105.830;2023-02-11T10:00:15;110.18;;;59.05;;
44434;SDS011;30138;20.964;105.830;2023-02-11T10:05:32;113.78;;;61.78;;
44434;SDS011;30138;20.964;105.830;2023-02-11T10:10:57;117.03;;;60.95;;
44434;SDS011;30138;20.964;105.830;2023-02-11T10:16:13;118.35;;;62.15;;
44434;SDS011;30138;20.964;105.830;2023-02-11T10:21:46;145.50;;;66.22;;
44434;SDS011;30138;20.964;105.830;2023-02-11T10:27:07;150.68;;;67.03;;
44434;SDS011;30138;20.964;105.830;2023-02-11T10:32:28;149.80;;;68.60;;
44434;SDS011;30138;20.964;105.830;2023-02-11T10:37:43;134.50;;;66.72;;
44434;SDS011;30138;20.964;105.830;2023-02-11T10:42:53;147.40;;;71.18;;
44434;SDS011;30138;20.964;105.830;2023-02-11T10:48:04;156.40;;;74.03;;
44434;SDS011;30138;20.964;105.830;2023-02-11T10:53:45;143.23;;;73.00;;
44434;SDS011;30138;20.964;105.830;2023-02-11T10:58:56;142.20;;;72.63;;
44434;SDS011;30138;20.964;105.830;2023-02-11T11:04:20;141.63;;;73.70;;
44434;SDS011;30138;20.964;105.830;2023-02-11T11:09:44;139.27;;;70.97;;
44434;SDS011;30138;20.964;105.830;2023-02-11T11:14:58;144.80;;;72.05;;
44434;SDS011;30138;20.964;105.830;2023-02-11T11:20:21;127.47;;;68.32;;
44434;SDS011;30138;20.964;105.830;2023-02-11T11:25:33;132.40;;;67.60;;
44434;SDS011;30138;20.964;105.830;2023-02-11T11:30:47;122.70;;;65.95;;
44434;SDS011;30138;20.964;105.830;2023-02-11T11:36:01;126.28;;;67.65;;
44434;SDS011;30138;20.964;105.830;2023-02-11T11:41:19;120.43;;;65.55;;
44434;SDS011;30138;20.964;105.830;2023-02-11T11:46:35;122.63;;;66.50;;
44434;SDS011;30138;20.964;105.830;2023-02-11T11:51:50;110.72;;;62.85;;
44434;SDS011;30138;20.964;105.830;2023-02-11T11:57:13;109.85;;;63.38;;
44434;SDS011;30138;20.964;105.830;2023-02-11T12:02:39;102.03;;;59.95;;
44434;SDS011;30138;20.964;105.830;2023-02-11T12:08:10;98.75;;;58.33;;
44434;SDS011;30138;20.964;105.830;2023-02-11T12:13:29;97.22;;;57.50;;
44434;SDS011;30138;20.964;105.830;2023-02-11T12:24:48;145.98;;;75.38;;
44434;SDS011;30138;20.964;105.830;2023-02-11T12:36:11;152.63;;;78.97;;
44434;SDS011;30138;20.964;105.830;2023-02-11T12:41:33;130.18;;;64.85;;
44434;SDS011;30138;20.964;105.830;2023-02-11T12:47:17;130.35;;;66.57;;
44434;SDS011;30138;20.964;105.830;2023-02-11T12:52:45;116.20;;;62.42;;
44434;SDS011;30138;20.964;105.830;2023-02-11T12:58:13;105.88;;;60.15;;
44434;SDS011;30138;20.964;105.830;2023-02-11T13:03:28;111.57;;;63.13;;
44434;SDS011;30138;20.964;105.830;2023-02-11T13:08:44;110.75;;;63.00;;
44434;SDS011;30138;20.964;105.830;2023-02-11T13:13:56;124.65;;;66.07;;
44434;SDS011;30138;20.964;105.830;2023-02-11T13:19:15;120.90;;;60.80;;
44434;SDS011;30138;20.964;105.830;2023-02-11T13:24:33;106.80;;;58.30;;
44434;SDS011;30138;20.964;105.830;2023-02-11T13:35:33;107.60;;;60.10;;
44434;SDS011;30138;20.964;105.830;2023-02-11T13:40:45;110.65;;;62.50;;
44434;SDS011;30138;20.964;105.830;2023-02-11T13:46:14;119.57;;;64.05;;
44434;SDS011;30138;20.964;105.830;2023-02-11T13:51:35;115.45;;;62.63;;
44434;SDS011;30138;20.964;105.830;2023-02-11T13:57:13;121.45;;;63.20;;
44434;SDS011;30138;20.964;105.830;2023-02-11T14:02:33;120.18;;;63.53;;
44434;SDS011;30138;20.964;105.830;2023-02-11T14:08:12;116.47;;;62.85;;
44434;SDS011;30138;20.964;105.830;2023-02-11T14:19:32;119.55;;;64.72;;
44434;SDS011;30138;20.964;105.830;2023-02-11T14:24:45;113.75;;;62.03;;
44434;SDS011;30138;20.964;105.830;2023-02-11T14:30:12;116.88;;;60.42;;
44434;SDS011;30138;20.964;105.830;2023-02-11T14:35:47;115.13;;;60.05;;
44434;SDS011;30138;20.964;105.830;2023-02-11T14:41:15;109.72;;;59.03;;
44434;SDS011;30138;20.964;105.830;2023-02-11T14:46:30;114.97;;;59.80;;
44434;SDS011;30138;20.964;105.830;2023-02-11T14:51:40;112.07;;;58.40;;
44434;SDS011;30138;20.964;105.830;2023-02-11T15:02:32;103.43;;;56.95;;
44434;SDS011;30138;20.964;105.830;2023-02-11T15:07:53;126.05;;;60.25;;
44434;SDS011;30138;20.964;105.830;2023-02-11T15:13:03;116.50;;;59.95;;
44434;SDS011;30138;20.964;105.830;2023-02-11T15:18:16;106.70;;;58.55;;
44434;SDS011;30138;20.964;105.830;2023-02-11T15:23:28;106.50;;;59.20;;
44434;SDS011;30138;20.964;105.830;2023-02-11T15:28:44;107.03;;;57.95;;
44434;SDS011;30138;20.964;105.830;2023-02-11T15:33:55;103.70;;;55.95;;
44434;SDS011;30138;20.964;105.830;2023-02-11T15:39:28;105.10;;;55.95;;
44434;SDS011;30138;20.964;105.830;2023-02-11T15:44:42;107.82;;;58.60;;
44434;SDS011;30138;20.964;105.830;2023-02-11T15:49:52;108.57;;;58.53;;
44434;SDS011;30138;20.964;105.830;2023-02-11T15:55:01;111.35;;;57.20;;
44434;SDS011;30138;20.964;105.830;2023-02-11T16:00:13;113.18;;;59.45;;
44434;SDS011;30138;20.964;105.830;2023-02-11T16:05:26;109.15;;;57.63;;
44434;SDS011;30138;20.964;105.830;2023-02-11T16:10:36;110.75;;;58.50;;
44434;SDS011;30138;20.964;105.830;2023-02-11T16:15:48;118.13;;;60.03;;
44434;SDS011;30138;20.964;105.830;2023-02-11T16:20:59;123.45;;;60.03;;
44434;SDS011;30138;20.964;105.830;2023-02-11T16:26:10;119.83;;;60.03;;
44434;SDS011;30138;20.964;105.830;2023-02-11T16:31:31;110.68;;;58.22;;
44434;SDS011;30138;20.964;105.830;2023-02-11T16:36:42;113.93;;;59.08;;
44434;SDS011;30138;20.964;105.830;2023-02-11T16:47:02;114.75;;;60.92;;
44434;SDS011;30138;20.964;105.830;2023-02-11T16:52:30;109.75;;;58.92;;
44434;SDS011;30138;20.964;105.830;2023-02-11T16:57:38;107.82;;;58.78;;
44434;SDS011;30138;20.964;105.830;2023-02-11T17:02:46;108.90;;;57.83;;
44434;SDS011;30138;20.964;105.830;2023-02-11T17:08:00;106.80;;;58.95;;
44434;SDS011;30138;20.964;105.830;2023-02-11T17:13:11;108.55;;;57.97;;
44434;SDS011;30138;20.964;105.830;2023-02-11T17:18:19;106.28;;;58.95;;
44434;SDS011;30138;20.964;105.830;2023-02-11T17:23:31;111.57;;;58.67;;
44434;SDS011;30138;20.964;105.830;2023-02-11T17:28:39;105.50;;;57.88;;
44434;SDS011;30138;20.964;105.830;2023-02-11T17:33:49;101.05;;;57.42;;
44434;SDS011;30138;20.964;105.830;2023-02-11T17:38:59;104.10;;;56.55;;
44434;SDS011;30138;20.964;105.830;2023-02-11T17:44:10;101.88;;;57.45;;
44434;SDS011;30138;20.964;105.830;2023-02-11T17:49:18;97.25;;;55.75;;
44434;SDS011;30138;20.964;105.830;2023-02-11T17:54:27;99.95;;;55.60;;
44434;SDS011;30138;20.964;105.830;2023-02-11T17:59:36;97.63;;;55.15;;
44434;SDS011;30138;20.964;105.830;2023-02-11T18:04:44;96.43;;;53.58;;
44434;SDS011;30138;20.964;105.830;2023-02-11T18:09:55;95.70;;;54.42;;
44434;SDS011;30138;20.964;105.830;2023-02-11T18:15:02;98.55;;;53.05;;
44434;SDS011;30138;20.964;105.830;2023-02-11T18:20:14;93.40;;;52.95;;
44434;SDS011;30138;20.964;105.830;2023-02-11T18:25:23;87.43;;;51.95;;
44434;SDS011;30138;20.964;105.830;2023-02-11T18:30:32;89.63;;;52.50;;
44434;SDS011;30138;20.964;105.830;2023-02-11T18:35:40;86.78;;;51.03;;
44434;SDS011;30138;20.964;105.830;2023-02-11T18:40:51;89.18;;;52.42;;
44434;SDS011;30138;20.964;105.830;2023-02-11T18:46:05;89.35;;;52.17;;
44434;SDS011;30138;20.964;105.830;2023-02-11T18:51:14;90.53;;;50.80;;
44434;SDS011;30138;20.964;105.830;2023-02-11T18:56:26;81.78;;;50.13;;
44434;SDS011;30138;20.964;105.830;2023-02-11T19:01:33;80.10;;;49.92;;
44434;SDS011;30138;20.964;105.830;2023-02-11T19:06:45;86.38;;;51.47;;
44434;SDS011;30138;20.964;105.830;2023-02-11T19:11:55;79.22;;;50.05;;
44434;SDS011;30138;20.964;105.830;2023-02-11T19:17:04;80.55;;;49.65;;
44434;SDS011;30138;20.964;105.830;2023-02-11T19:22:13;83.57;;;50.55;;
44434;SDS011;30138;20.964;105.830;2023-02-11T19:27:22;80.20;;;50.47;;
44434;SDS011;30138;20.964;105.830;2023-02-11T19:32:30;79.53;;;49.50;;
44434;SDS011;30138;20.964;105.830;2023-02-11T19:37:37;79.22;;;48.95;;
44434;SDS011;30138;20.964;105.830;2023-02-11T19:42:48;80.40;;;49.90;;
44434;SDS011;30138;20.964;105.830;2023-02-11T19:47:56;77.45;;;47.80;;
44434;SDS011;30138;20.964;105.830;2023-02-11T19:53:04;75.65;;;47.88;;
44434;SDS011;30138;20.964;105.830;2023-02-11T19:58:14;79.57;;;49.08;;
44434;SDS011;30138;20.964;105.830;2023-02-11T20:03:22;77.82;;;48.10;;
44434;SDS011;30138;20.964;105.830;2023-02-11T20:08:30;74.75;;;47.85;;
44434;SDS011;30138;20.964;105.830;2023-02-11T20:13:44;73.63;;;47.47;;
44434;SDS011;30138;20.964;105.830;2023-02-11T20:18:52;78.75;;;48.97;;
44434;SDS011;30138;20.964;105.830;2023-02-11T20:24:00;80.00;;;49.30;;
44434;SDS011;30138;20.964;105.830;2023-02-11T20:29:09;76.18;;;47.08;;
44434;SDS011;30138;20.964;105.830;2023-02-11T20:34:18;76.17;;;48.87;;
44434;SDS011;30138;20.964;105.830;2023-02-11T20:39:26;74.82;;;46.65;;
44434;SDS011;30138;20.964;105.830;2023-02-11T20:44:35;78.50;;;48.10;;
44434;SDS011;30138;20.964;105.830;2023-02-11T20:49:43;71.43;;;46.80;;
44434;SDS011;30138;20.964;105.830;2023-02-11T20:54:51;72.80;;;46.47;;
44434;SDS011;30138;20.964;105.830;2023-02-11T21:00:01;72.80;;;47.03;;
44434;SDS011;30138;20.964;105.830;2023-02-11T21:05:10;70.20;;;46.70;;
44434;SDS011;30138;20.964;105.830;2023-02-11T21:10:18;75.22;;;47.50;;
44434;SDS011;30138;20.964;105.830;2023-02-11T21:15:28;71.55;;;45.78;;
44434;SDS011;30138;20.964;105.830;2023-02-11T21:20:35;72.30;;;47.90;;
44434;SDS011;30138;20.964;105.830;2023-02-11T21:25:43;74.55;;;45.67;;
44434;SDS011;30138;20.964;105.830;2023-02-11T21:30:54;74.35;;;46.72;;
44434;SDS011;30138;20.964;105.830;2023-02-11T21:36:03;71.03;;;46.55;;
44434;SDS011;30138;20.964;105.830;2023-02-11T21:41:11;72.90;;;46.90;;
44434;SDS011;30138;20.964;105.830;2023-02-11T21:46:20;72.30;;;47.15;;
44434;SDS011;30138;20.964;105.830;2023-02-11T21:51:28;75.28;;;47.10;;
44434;SDS011;30138;20.964;105.830;2023-02-11T21:56:35;69.35;;;45.90;;
44434;SDS011;30138;20.964;105.830;2023-02-11T22:01:46;70.55;;;46.40;;
44434;SDS011;30138;20.964;105.830;2023-02-11T22:06:55;73.93;;;46.75;;
44434;SDS011;30138;20.964;105.830;2023-02-11T22:12:04;67.95;;;45.53;;
44434;SDS011;30138;20.964;105.830;2023-02-11T22:17:13;68.53;;;46.60;;
44434;SDS011;30138;20.964;105.830;2023-02-11T22:22:21;75.43;;;47.83;;
44434;SDS011;30138;20.964;105.830;2023-02-11T22:27:30;72.93;;;46.65;;
44434;SDS011;30138;20.964;105.830;2023-02-11T22:32:39;68.35;;;44.58;;
44434;SDS011;30138;20.964;105.830;2023-02-11T22:37:48;69.85;;;45.97;;
44434;SDS011;30138;20.964;105.830;2023-02-11T22:42:55;70.00;;;46.05;;
44434;SDS011;30138;20.964;105.830;2023-02-11T22:48:04;70.72;;;45.63;;
44434;SDS011;30138;20.964;105.830;2023-02-11T22:53:12;74.90;;;48.75;;
44434;SDS011;30138;20.964;105.830;2023-02-11T22:58:20;74.55;;;46.67;;
44434;SDS011;30138;20.964;105.830;2023-02-11T23:03:31;69.53;;;46.75;;
44434;SDS011;30138;20.964;105.830;2023-02-11T23:08:39;72.82;;;45.60;;
44434;SDS011;30138;20.964;105.830;2023-02-11T23:13:48;70.40;;;46.20;;
44434;SDS011;30138;20.964;105.830;2023-02-11T23:19:00;70.40;;;46.38;;
44434;SDS011;30138;20.964;105.830;2023-02-11T23:24:09;71.95;;;46.90;;
44434;SDS011;30138;20.964;105.830;2023-02-11T23:29:19;72.85;;;47.20;;
44434;SDS011;30138;20.964;105.830;2023-02-11T23:34:30;71.07;;;46.97;;
44434;SDS011;30138;20.964;105.830;2023-02-11T23:39:38;65.40;;;45.20;;
44434;SDS011;30138;20.964;105.830;2023-02-11T23:44:47;68.30;;;45.90;;
44434;SDS011;30138;20.964;105.830;2023-02-11T23:49:56;73.80;;;48.20;;
44434;SDS011;30138;20.964;105.830;2023-02-11T23:55:05;75.43;;;47.07;;
